Time;durP1;ratioP1;P1;durP2;ratioP2;P2;SDS_P1;SDS_P2;PMS_P1;PMS_P2;Temp;Humidity;BMP_temperature;BMP_pressure;BME280_temperature;BME280_humidity;BME280_pressure;Samples;Min_cycle;Max_cycle;Signal;HPM_P1;HPM_P2
2022/08/16 00:02:02;;;;;;;13.03;6.75;;;;;;;20.78;66.01;99671.23;1781998;79;21475;-75
2022/08/16 00:04:28;;;;;;;8.10;6.40;;;;;;;20.74;66.02;99671.45;1801819;78;21487;-75
2022/08/16 00:06:54;;;;;;;8.10;6.97;;;;;;;20.71;66.08;99668.73;1806734;78;21025;-75
2022/08/16 00:09:21;;;;;;;9.33;6.67;;;;;;;20.72;66.08;99664.13;1786675;79;21115;-75
2022/08/16 00:11:47;;;;;;;7.72;6.20;;;;;;;20.75;66.05;99658.20;1792724;79;21015;-75
2022/08/16 00:14:16;;;;;;;8.63;6.75;;;;;;;20.75;66.02;99659.55;1777917;79;20967;-75
2022/08/16 00:16:43;;;;;;;10.03;7.35;;;;;;;20.75;65.97;99659.55;1777196;78;21051;-75
2022/08/16 00:19:09;;;;;;;10.53;6.60;;;;;;;20.73;65.92;99656.27;1799775;78;21057;-75
2022/08/16 00:21:35;;;;;;;24.40;7.87;;;;;;;20.70;65.90;99663.55;1787023;78;21163;-75
2022/08/16 00:24:01;;;;;;;18.00;7.15;;;;;;;20.66;65.91;99663.77;1796769;78;20938;-75
2022/08/16 00:26:27;;;;;;;32.20;8.43;;;;;;;20.63;65.93;99668.34;1796546;78;21009;-75
2022/08/16 00:28:53;;;;;;;9.70;7.22;;;;;;;20.59;65.96;99668.56;1796630;78;20963;-75
2022/08/16 00:31:19;;;;;;;8.28;6.12;;;;;;;20.47;66.01;99671.42;1796547;78;21462;-75
2022/08/16 00:33:45;;;;;;;11.03;8.15;;;;;;;20.34;66.09;99678.02;1770470;79;21810;-75
2022/08/16 00:36:11;;;;;;;15.68;9.13;;;;;;;20.25;66.21;99687.63;1779787;79;20982;-75
2022/08/16 00:38:37;;;;;;;11.03;9.03;;;;;;;20.23;66.32;99695.16;1789200;79;20995;-75
2022/08/16 00:41:03;;;;;;;10.95;8.70;;;;;;;20.23;66.37;99699.22;1823916;78;20869;-75
2022/08/16 00:43:34;;;;;;;10.32;8.40;;;;;;;20.24;66.42;99704.93;1781103;79;21085;-75
2022/08/16 00:46:21;;;;;;;11.70;7.90;;;;;;;20.26;66.41;99704.16;1792468;79;21797;-75
2022/08/16 00:48:49;;;;;;;11.10;8.13;;;;;;;20.26;66.42;99704.16;1779140;79;21044;-75
2022/08/16 00:51:16;;;;;;;10.95;8.18;;;;;;;20.29;66.43;99700.16;1780468;79;21087;-75
2022/08/16 00:53:41;;;;;;;10.48;7.90;;;;;;;20.30;66.41;99704.52;1782579;79;21049;-75
2022/08/16 00:56:10;;;;;;;7.97;7.10;;;;;;;20.29;66.41;99706.40;1796748;78;20965;-74
2022/08/16 00:58:39;;;;;;;12.10;6.97;;;;;;;20.27;66.40;99705.81;1776992;79;21139;-74
2022/08/16 01:01:07;;;;;;;7.28;6.33;;;;;;;20.25;66.42;99700.34;1799022;78;21395;-74
2022/08/16 01:03:34;;;;;;;9.35;6.47;;;;;;;20.23;66.40;99705.98;1792198;79;21036;-75
2022/08/16 01:06:01;;;;;;;17.25;7.70;;;;;;;20.19;66.40;99695.92;1773644;79;21004;-75
2022/08/16 01:08:27;;;;;;;13.72;7.17;;;;;;;20.10;66.40;99696.87;1778321;79;21024;-75
2022/08/16 01:10:54;;;;;;;13.28;9.98;;;;;;;20.03;66.49;99709.77;1782181;79;21518;-75
2022/08/16 01:13:23;;;;;;;15.48;9.53;;;;;;;19.93;66.55;99702.84;1796286;78;20993;-75
2022/08/16 01:15:55;;;;;;;13.80;9.50;;;;;;;19.87;66.61;99699.26;1779768;79;20997;-75
2022/08/16 01:18:24;;;;;;;12.35;8.73;;;;;;;19.81;66.72;99703.45;1818931;78;37860;-75
2022/08/16 01:20:59;;;;;;;10.35;7.83;;;;;;;19.80;66.82;99703.20;1785551;78;21073;-75
2022/08/16 01:23:52;;;;;;;12.95;7.75;;;;;;;19.80;66.87;99702.67;1793076;79;20966;-75
2022/08/16 01:26:18;;;;;;;8.25;6.78;;;;;;;19.82;66.94;99705.11;1745787;78;20999;-75
2022/08/16 01:28:44;;;;;;;10.30;6.92;;;;;;;19.84;66.99;99706.49;1779386;78;20987;-75
2022/08/16 01:31:10;;;;;;;9.28;6.45;;;;;;;19.86;67.04;99712.50;1813461;78;21502;-75
2022/08/16 01:33:36;;;;;;;10.35;7.53;;;;;;;19.84;67.08;99716.52;1819352;78;21597;-75
2022/08/16 01:36:05;;;;;;;11.45;7.80;;;;;;;19.80;67.12;99714.02;1792418;78;21925;-75
2022/08/16 01:38:36;;;;;;;11.93;7.58;;;;;;;19.75;67.19;99716.10;1784125;80;20970;-75
2022/08/16 01:41:13;;;;;;;11.25;8.58;;;;;;;19.72;67.27;99710.36;1787935;78;20990;-75
2022/08/16 01:43:41;;;;;;;10.75;7.70;;;;;;;19.69;67.35;99712.21;1788358;78;21636;-74
2022/08/16 01:46:18;;;;;;;10.78;8.13;;;;;;;19.65;67.41;99704.30;1791015;79;21049;-75
2022/08/16 01:48:44;;;;;;;9.70;8.15;;;;;;;19.62;67.50;99699.38;1793570;78;21143;-75
2022/08/16 01:51:10;;;;;;;9.55;8.03;;;;;;;19.59;67.59;99703.94;1783088;78;20871;-75
2022/08/16 01:53:36;;;;;;;8.50;7.28;;;;;;;19.56;67.67;99703.08;1752832;78;20948;-75
2022/08/16 01:56:03;;;;;;;10.25;7.67;;;;;;;19.53;67.74;99700.87;1792647;79;20875;-75
2022/08/16 01:58:29;;;;;;;12.55;8.28;;;;;;;19.48;67.80;99701.59;1808433;78;20983;-75
2022/08/16 02:00:56;;;;;;;12.80;8.95;;;;;;;19.44;67.85;99703.96;1785325;78;21021;-74
2022/08/16 02:03:22;;;;;;;9.95;7.28;;;;;;;19.43;67.94;99703.67;1797652;78;21496;-75
2022/08/16 02:05:48;;;;;;;11.68;8.20;;;;;;;19.43;67.98;99710.43;1788443;78;21038;-75
2022/08/16 02:08:14;;;;;;;11.33;8.05;;;;;;;19.42;68.01;99706.08;1794721;78;20859;-75
2022/08/16 02:10:40;;;;;;;10.63;7.80;;;;;;;19.41;68.07;99708.52;1764772;79;21352;-75
2022/08/16 02:13:06;;;;;;;12.63;7.42;;;;;;;19.38;68.08;99707.62;1792818;78;21019;-74
2022/08/16 02:15:33;;;;;;;9.65;7.62;;;;;;;19.30;68.11;99710.72;1772249;80;20970;-75
2022/08/16 02:18:00;;;;;;;8.95;7.60;;;;;;;19.21;68.17;99714.86;1793040;78;21075;-74
2022/08/16 02:20:29;;;;;;;9.00;7.25;;;;;;;19.16;68.29;99718.02;1792639;80;20950;-75
2022/08/16 02:22:57;;;;;;;14.35;7.20;;;;;;;19.14;68.39;99711.48;1811754;78;20959;-74
2022/08/16 02:25:23;;;;;;;18.95;8.90;;;;;;;19.12;68.50;99711.45;1763560;80;21538;-75
2022/08/16 02:27:49;;;;;;;12.68;8.83;;;;;;;19.11;68.61;99711.97;1735061;81;21062;-75
2022/08/16 02:30:20;;;;;;;31.20;9.50;;;;;;;19.10;68.70;99706.30;1742978;81;21058;-74
2022/08/16 02:32:46;;;;;;;22.55;8.80;;;;;;;19.11;68.78;99708.44;1742969;81;21512;-74
2022/08/16 02:35:12;;;;;;;16.90;8.83;;;;;;;19.11;68.88;99701.69;1743036;81;21133;-75
2022/08/16 02:37:38;;;;;;;11.35;7.85;;;;;;;19.11;68.97;99697.63;1751506;81;21335;-74
2022/08/16 02:40:05;;;;;;;17.82;8.85;;;;;;;19.09;69.07;99699.77;1751868;81;21046;-75
2022/08/16 02:42:31;;;;;;;14.07;8.33;;;;;;;19.09;69.15;99706.00;1761109;81;21011;-75
2022/08/16 02:44:57;;;;;;;21.27;7.30;;;;;;;19.06;69.23;99695.67;1752938;80;21516;-75
2022/08/16 02:47:23;;;;;;;16.27;7.50;;;;;;;19.03;69.31;99698.87;1756222;81;21038;-74
2022/08/16 02:49:49;;;;;;;13.32;7.35;;;;;;;19.01;69.39;99699.62;1752080;81;21149;-74
2022/08/16 02:52:15;;;;;;;13.25;7.20;;;;;;;19.00;69.48;99705.28;1749030;81;20987;-75
2022/08/16 02:54:41;;;;;;;31.95;8.23;;;;;;;18.98;69.52;99712.27;1742809;81;21527;-75
2022/08/16 02:57:07;;;;;;;47.98;10.82;;;;;;;18.99;69.59;99711.22;1746459;81;21543;-75
2022/08/16 02:59:33;;;;;;;34.27;10.03;;;;;;;19.00;69.66;99714.19;1742862;81;20977;-75
2022/08/16 03:02:00;;;;;;;14.87;8.55;;;;;;;19.01;69.73;99717.19;1742884;81;21988;-75
2022/08/16 03:04:26;;;;;;;12.03;8.48;;;;;;;19.00;69.81;99720.15;1742825;81;20883;-75
2022/08/16 03:06:52;;;;;;;10.90;8.08;;;;;;;18.99;69.89;99715.27;1746773;81;20990;-74
2022/08/16 03:09:18;;;;;;;8.53;7.62;;;;;;;18.99;69.95;99723.38;1743098;81;21000;-75
2022/08/16 03:11:44;;;;;;;9.70;7.53;;;;;;;18.98;69.97;99725.78;1742931;81;20962;-75
2022/08/16 03:14:10;;;;;;;8.90;7.53;;;;;;;18.94;70.07;99726.80;1742758;81;21965;-74
2022/08/16 03:16:37;;;;;;;10.75;7.90;;;;;;;18.96;70.14;99727.92;1745837;81;21014;-75
2022/08/16 03:19:03;;;;;;;10.63;7.58;;;;;;;18.92;70.20;99726.75;1742008;81;21522;-75
2022/08/16 03:21:30;;;;;;;8.05;7.20;;;;;;;18.91;70.26;99727.80;1741938;81;21089;-75
2022/08/16 03:23:56;;;;;;;10.15;7.15;;;;;;;18.89;70.31;99731.30;1751151;81;21510;-75
2022/08/16 03:26:22;;;;;;;9.13;7.28;;;;;;;18.88;70.37;99739.09;1804609;78;22021;-74
2022/08/16 03:28:48;;;;;;;9.20;7.78;;;;;;;18.86;70.44;99731.74;1741346;80;21035;-74
2022/08/16 03:31:14;;;;;;;13.05;8.28;;;;;;;18.84;70.51;99736.05;1782697;78;20973;-75
2022/08/16 03:33:41;;;;;;;14.53;8.75;;;;;;;18.84;70.56;99735.23;1796179;79;21022;-75
2022/08/16 03:36:07;;;;;;;11.88;8.60;;;;;;;18.81;70.64;99731.66;1783251;78;21038;-75
2022/08/16 03:38:33;;;;;;;12.43;8.95;;;;;;;18.77;70.74;99735.89;1793108;78;21033;-75
2022/08/16 03:41:00;;;;;;;13.88;9.53;;;;;;;18.76;70.82;99734.25;1804445;77;21048;-75
2022/08/16 03:43:27;;;;;;;10.63;9.53;;;;;;;18.75;70.93;99733.98;1775750;79;21066;-75
2022/08/16 03:45:54;;;;;;;15.68;10.40;;;;;;;18.75;71.00;99739.38;1805330;78;21489;-75
2022/08/16 03:48:24;;;;;;;14.45;10.30;;;;;;;18.75;71.10;99742.08;1771974;80;21053;-74
2022/08/16 03:50:50;;;;;;;15.65;9.98;;;;;;;18.78;71.21;99745.66;1787555;78;21493;-75
2022/08/16 03:53:16;;;;;;;11.95;9.63;;;;;;;18.80;71.33;99744.88;1824946;78;20953;-74
2022/08/16 03:55:42;;;;;;;17.62;10.82;;;;;;;18.84;71.43;99750.09;1759285;80;21471;-75
2022/08/16 03:58:08;;;;;;;13.13;10.03;;;;;;;18.88;71.50;99755.31;1791451;78;21481;-75
2022/08/16 04:00:34;;;;;;;13.45;9.85;;;;;;;18.91;71.56;99741.31;1784834;78;21018;-75
2022/08/16 04:03:05;;;;;;;21.12;10.85;;;;;;;18.92;71.64;99740.27;1785882;78;21078;-75
2022/08/16 04:05:30;;;;;;;15.25;10.10;;;;;;;18.94;71.73;99739.48;1795139;78;21113;-75
2022/08/16 04:07:56;;;;;;;13.60;9.80;;;;;;;18.98;71.78;99747.41;1772838;79;21020;-74
2022/08/16 04:10:22;;;;;;;16.17;10.08;;;;;;;18.97;71.82;99751.16;1789089;78;21052;-75
2022/08/16 04:12:48;;;;;;;59.38;11.18;;;;;;;18.95;71.92;99746.02;1785265;78;21495;-75
2022/08/16 04:15:15;;;;;;;28.73;10.75;;;;;;;18.92;71.97;99752.42;1769228;78;21726;-75
2022/08/16 04:17:41;;;;;;;16.65;9.83;;;;;;;18.92;72.10;99751.08;1792707;78;20998;-75
2022/08/16 04:20:08;;;;;;;49.30;11.75;;;;;;;18.94;72.19;99746.23;1773268;79;21075;-75
2022/08/16 04:22:36;;;;;;;26.55;10.25;;;;;;;19.00;72.29;99753.38;1782370;78;21014;-75
2022/08/16 04:25:03;;;;;;;13.35;9.98;;;;;;;19.11;72.35;99763.33;1789270;78;21511;-75
2022/08/16 04:27:29;;;;;;;606.33;36.80;;;;;;;19.25;72.41;99772.80;1759225;80;21267;-75
2022/08/16 04:29:56;;;;;;;65.10;13.25;;;;;;;19.56;72.50;99774.76;1760125;80;21815;-75
2022/08/16 04:32:22;;;;;;;20.52;10.48;;;;;;;19.76;72.36;99772.40;1742638;81;21441;-75
2022/08/16 04:34:48;;;;;;;18.12;10.45;;;;;;;19.70;72.20;99781.50;1742912;81;21070;-75
2022/08/16 04:37:14;;;;;;;33.83;11.15;;;;;;;20.12;72.58;99785.45;1742366;81;21021;-75
2022/08/16 04:39:40;;;;;;;34.10;10.38;;;;;;;20.79;72.31;99790.78;1747010;81;21132;-75
2022/08/16 04:42:06;;;;;;;134.50;13.85;;;;;;;21.61;72.19;99797.43;1748684;81;21010;-75
2022/08/16 04:44:32;;;;;;;29.30;11.55;;;;;;;22.37;71.34;99794.86;1742308;81;21011;-75
2022/08/16 04:46:59;;;;;;;37.35;11.28;;;;;;;22.56;70.89;99791.98;1742212;81;21037;-75
2022/08/16 04:49:25;;;;;;;17.67;10.65;;;;;;;23.43;70.46;99795.95;1742469;81;20991;-75
2022/08/16 04:51:51;;;;;;;15.63;10.82;;;;;;;23.76;69.19;99792.73;1742722;81;21448;-75
2022/08/16 04:54:17;;;;;;;11.35;10.20;;;;;;;23.59;68.64;99797.06;1742323;81;20905;-75
2022/08/16 04:56:43;;;;;;;14.10;11.08;;;;;;;23.94;68.78;99797.64;1742383;81;21089;-75
2022/08/16 04:59:09;;;;;;;13.50;11.65;;;;;;;24.86;68.13;99799.20;1739903;80;21537;-75
2022/08/16 05:01:36;;;;;;;11.48;9.63;;;;;;;25.66;66.80;99804.01;1744517;80;21473;-75
2022/08/16 05:04:02;;;;;;;11.97;10.45;;;;;;;26.11;65.50;99811.86;1758655;81;21812;-75
2022/08/16 05:06:28;;;;;;;14.23;10.28;;;;;;;26.37;64.09;99807.57;1746640;81;21032;-75
2022/08/16 05:08:54;;;;;;;12.37;11.08;;;;;;;26.08;63.35;99809.70;1743127;81;21005;-75
2022/08/16 05:11:21;;;;;;;11.65;10.25;;;;;;;25.79;63.27;99805.55;1742357;81;21048;-75
2022/08/16 05:13:47;;;;;;;12.58;11.03;;;;;;;25.43;63.20;99806.05;1742556;81;20970;-75
2022/08/16 05:16:21;;;;;;;14.50;9.88;;;;;;;24.95;63.14;99820.71;1742264;81;22777;-75
2022/08/16 05:18:48;;;;;;;13.43;11.25;;;;;;;24.70;63.09;99817.48;1741998;81;21075;-75
2022/08/16 05:21:14;;;;;;;13.65;10.63;;;;;;;24.52;63.00;99816.73;1742868;81;21485;-75
2022/08/16 05:23:40;;;;;;;13.08;10.20;;;;;;;24.40;62.93;99822.18;1763952;81;21461;-75
2022/08/16 05:26:06;;;;;;;10.98;9.88;;;;;;;24.68;62.80;99814.77;1791513;78;21890;-75
2022/08/16 05:28:32;;;;;;;13.95;10.35;;;;;;;24.98;62.57;99826.97;1793197;78;21467;-76
2022/08/16 05:30:58;;;;;;;14.15;9.88;;;;;;;25.20;62.48;99827.44;1796762;78;21055;-76
2022/08/16 05:33:25;;;;;;;12.03;9.28;;;;;;;25.37;62.24;99830.39;1787298;78;21475;-75
2022/08/16 05:35:51;;;;;;;13.95;11.75;;;;;;;25.50;61.91;99828.39;1790868;79;21773;-75
2022/08/16 05:38:17;;;;;;;12.68;9.73;;;;;;;25.44;61.64;99831.69;1805543;78;21419;-76
2022/08/16 05:40:43;;;;;;;11.30;9.93;;;;;;;25.59;61.32;99839.02;1793916;78;22480;-76
2022/08/16 05:43:09;;;;;;;17.00;10.75;;;;;;;25.70;61.00;99840.59;1770672;78;20993;-76
2022/08/16 05:45:35;;;;;;;12.28;10.18;;;;;;;25.94;60.75;99840.16;1789327;78;20963;-76
2022/08/16 05:48:02;;;;;;;15.98;11.08;;;;;;;26.02;60.38;99843.66;1764620;79;21003;-76
2022/08/16 05:50:28;;;;;;;12.63;9.98;;;;;;;26.23;60.19;99836.95;1782867;78;20906;-76
2022/08/16 05:52:54;;;;;;;18.62;11.65;;;;;;;26.42;59.77;99838.44;1787967;80;21701;-76
2022/08/16 05:55:20;;;;;;;15.55;10.90;;;;;;;26.65;59.38;99838.20;1782486;78;21287;-76
2022/08/16 05:57:47;;;;;;;11.68;10.48;;;;;;;26.65;58.96;99839.02;1794451;78;21035;-76
2022/08/16 06:00:14;;;;;;;20.02;11.40;;;;;;;26.80;58.69;99847.63;1789241;78;21029;-76
2022/08/16 06:02:41;;;;;;;26.97;11.30;;;;;;;26.78;58.32;99847.09;1783276;78;20983;-76
2022/08/16 06:05:07;;;;;;;18.67;10.32;;;;;;;26.68;58.13;99847.20;1792650;78;21963;-76
2022/08/16 06:07:33;;;;;;;12.60;9.38;;;;;;;26.63;57.92;99846.72;1792564;78;20942;-76
2022/08/16 06:10:00;;;;;;;14.75;9.18;;;;;;;26.70;57.68;99852.66;1791432;80;21044;-76
2022/08/16 06:12:27;;;;;;;10.80;9.70;;;;;;;26.62;57.48;99843.70;1824049;78;21020;-76
2022/08/16 06:14:57;;;;;;;11.12;8.68;;;;;;;26.67;57.35;99851.06;1749671;80;20986;-76
2022/08/16 06:17:22;;;;;;;10.23;8.63;;;;;;;26.73;57.13;99855.36;1771815;78;21724;-76
2022/08/16 06:19:48;;;;;;;19.65;10.03;;;;;;;26.72;57.05;99857.83;1756063;80;21080;-76
2022/08/16 06:22:14;;;;;;;10.05;8.60;;;;;;;26.80;56.81;99859.39;1793157;78;21013;-76
2022/08/16 06:24:40;;;;;;;11.25;8.95;;;;;;;26.93;56.66;99858.45;1776415;78;20955;-76
2022/08/16 06:27:06;;;;;;;12.23;8.50;;;;;;;27.16;56.40;99863.92;1761307;80;20923;-76
2022/08/16 06:29:32;;;;;;;36.35;9.98;;;;;;;27.23;56.17;99865.76;1742240;81;21872;-76
2022/08/16 06:31:58;;;;;;;12.47;8.13;;;;;;;27.24;56.00;99871.50;1753011;81;22121;-76
2022/08/16 06:34:24;;;;;;;9.45;7.85;;;;;;;27.18;55.89;99874.05;1758035;80;21415;-76
2022/08/16 06:36:50;;;;;;;11.80;8.93;;;;;;;27.25;55.77;99870.41;1761216;80;21559;-76
2022/08/16 06:39:16;;;;;;;11.35;9.10;;;;;;;27.42;55.56;99876.77;1740331;81;21626;-76
2022/08/16 06:41:42;;;;;;;11.22;8.93;;;;;;;27.47;55.44;99877.29;1742708;81;21774;-76
2022/08/16 06:44:09;;;;;;;11.97;8.33;;;;;;;27.43;55.23;99883.06;1761105;80;20995;-76
2022/08/16 06:46:36;;;;;;;10.43;7.85;;;;;;;27.45;55.15;99882.23;1760957;80;21439;-76
2022/08/16 06:49:06;;;;;;;10.70;8.10;;;;;;;27.56;54.98;99886.47;1756569;80;21070;-76
2022/08/16 06:51:33;;;;;;;11.08;7.60;;;;;;;27.49;54.61;99891.50;1766911;80;20975;-76
2022/08/16 06:54:00;;;;;;;14.80;8.83;;;;;;;27.15;54.44;99896.55;1773568;80;21688;-76
2022/08/16 06:56:26;;;;;;;23.42;9.05;;;;;;;27.12;54.43;99893.02;1761261;80;21444;-76
2022/08/16 06:58:52;;;;;;;9.75;8.85;;;;;;;26.99;54.37;99890.95;1761198;80;20931;-76
2022/08/16 07:01:20;;;;;;;14.73;9.95;;;;;;;27.03;54.41;99889.27;1763499;80;21519;-76
2022/08/16 07:03:46;;;;;;;12.18;8.85;;;;;;;27.09;54.33;99898.27;1779119;80;21458;-76
2022/08/16 07:06:12;;;;;;;15.70;10.05;;;;;;;27.17;54.29;99901.16;1768207;80;21832;-76
2022/08/16 07:08:41;;;;;;;13.13;9.50;;;;;;;27.15;54.22;99902.02;1761322;80;21003;-76
2022/08/16 07:11:06;;;;;;;11.40;10.20;;;;;;;27.22;54.22;99903.86;1760972;80;21030;-76
2022/08/16 07:13:32;;;;;;;18.52;10.58;;;;;;;27.21;54.09;99904.95;1761025;80;20888;-76
2022/08/16 07:15:58;;;;;;;12.03;10.13;;;;;;;27.24;54.18;99915.32;1761050;80;21468;-76
2022/08/16 07:18:25;;;;;;;13.58;9.08;;;;;;;27.29;54.02;99905.69;1758294;80;22773;-76
2022/08/16 07:20:52;;;;;;;16.48;9.63;;;;;;;27.37;53.98;99908.89;1760622;80;20924;-76
2022/08/16 07:23:19;;;;;;;11.48;8.93;;;;;;;27.41;53.86;99910.73;1761087;80;21042;-76
2022/08/16 07:25:45;;;;;;;18.62;9.93;;;;;;;27.54;53.77;99907.88;1760726;80;21057;-76
2022/08/16 07:28:13;;;;;;;10.88;9.05;;;;;;;27.55;53.66;99908.94;1764721;80;21033;-76
2022/08/16 07:30:39;;;;;;;19.17;9.25;;;;;;;27.64;53.58;99909.12;1761067;80;21598;-76
2022/08/16 07:33:06;;;;;;;40.73;10.40;;;;;;;27.69;53.36;99907.69;1760611;80;21032;-76
2022/08/16 07:35:33;;;;;;;14.70;8.48;;;;;;;27.66;53.17;99912.36;1770147;80;20995;-76
2022/08/16 07:37:59;;;;;;;9.20;8.28;;;;;;;27.70;53.03;99910.67;1761106;80;20987;-76
2022/08/16 07:40:25;;;;;;;11.43;7.05;;;;;;;27.75;52.90;99914.73;1761197;80;20987;-76
2022/08/16 07:42:52;;;;;;;7.45;6.75;;;;;;;27.86;52.77;99909.37;1761016;80;22033;-76
2022/08/16 07:45:18;;;;;;;11.45;6.50;;;;;;;28.06;52.60;99909.06;1770751;80;21558;-76
2022/08/16 07:47:44;;;;;;;11.88;7.42;;;;;;;28.12;52.30;99914.77;1761795;80;21042;-76
2022/08/16 07:50:13;;;;;;;13.10;6.45;;;;;;;28.24;52.06;99913.77;1782563;80;20987;-76
2022/08/16 07:52:40;;;;;;;13.90;7.17;;;;;;;28.21;51.73;99915.73;1762744;80;21049;-76
2022/08/16 07:55:07;;;;;;;9.73;5.70;;;;;;;28.22;51.56;99921.45;1760767;80;22674;-76
2022/08/16 07:57:33;;;;;;;11.43;6.50;;;;;;;28.28;51.39;99922.21;1761045;80;21042;-76
2022/08/16 07:59:59;;;;;;;11.60;6.12;;;;;;;28.40;51.17;99920.36;1769450;80;21003;-76
2022/08/16 08:02:27;;;;;;;8.53;5.55;;;;;;;28.36;50.93;99919.35;1762402;79;21070;-76
2022/08/16 08:04:54;;;;;;;6.33;5.70;;;;;;;28.40;50.70;99921.73;1760910;80;21069;-76
2022/08/16 08:07:20;;;;;;;7.85;5.90;;;;;;;28.33;50.44;99921.30;1760748;80;22564;-76
2022/08/16 08:09:46;;;;;;;6.58;5.97;;;;;;;28.27;50.26;99920.02;1768617;80;20986;-76
2022/08/16 08:12:13;;;;;;;7.95;5.92;;;;;;;28.26;50.05;99922.50;1764491;80;20992;-76
2022/08/16 08:14:39;;;;;;;6.92;6.00;;;;;;;28.29;49.90;99916.41;1760720;80;21105;-76
2022/08/16 08:17:06;;;;;;;7.83;6.00;;;;;;;28.29;49.63;99918.33;1778645;80;20961;-76
2022/08/16 08:19:34;;;;;;;7.62;6.22;;;;;;;28.31;49.49;99919.42;1772628;80;21944;-77
2022/08/16 08:22:01;;;;;;;9.30;5.60;;;;;;;28.47;49.51;99916.67;1775418;80;20995;-76
2022/08/16 08:24:27;;;;;;;6.15;5.45;;;;;;;28.68;49.31;99917.99;1775228;80;21008;-77
2022/08/16 08:26:54;;;;;;;8.53;6.20;;;;;;;28.78;49.04;99923.33;1773399;79;20988;-77
2022/08/16 08:29:20;;;;;;;8.33;6.45;;;;;;;28.77;48.73;99917.58;1780684;79;21092;-77
2022/08/16 08:31:46;;;;;;;8.75;6.67;;;;;;;28.81;48.57;99919.98;1805715;78;21911;-76
2022/08/16 08:34:12;;;;;;;10.35;6.78;;;;;;;28.82;48.31;99918.05;1779357;79;20875;-77
2022/08/16 08:36:39;;;;;;;7.85;6.60;;;;;;;28.72;48.00;99919.02;1812426;78;21360;-76
2022/08/16 08:39:05;;;;;;;7.00;6.25;;;;;;;28.81;48.00;99922.73;1791580;80;21351;-76
2022/08/16 08:41:31;;;;;;;7.97;5.97;;;;;;;28.86;47.66;99917.68;1793686;78;21029;-76
2022/08/16 08:43:57;;;;;;;6.78;6.03;;;;;;;28.91;47.63;99922.53;1788167;78;21867;-76
2022/08/16 08:46:24;;;;;;;6.08;5.47;;;;;;;29.00;47.53;99918.52;1802824;77;20948;-77
2022/08/16 08:48:51;;;;;;;7.90;5.85;;;;;;;28.95;47.38;99923.56;1796588;78;21003;-76
2022/08/16 08:51:17;;;;;;;10.38;5.55;;;;;;;29.05;47.31;99923.38;1786188;78;20974;-77
2022/08/16 08:53:44;;;;;;;6.95;5.22;;;;;;;29.05;47.22;99926.13;1817785;78;20910;-77
2022/08/16 08:56:11;;;;;;;9.88;6.60;;;;;;;29.16;47.06;99922.07;1775731;79;21963;-76
2022/08/16 08:58:38;;;;;;;8.68;5.53;;;;;;;29.25;46.88;99922.98;1790004;78;20968;-77
2022/08/16 09:01:06;;;;;;;7.12;5.55;;;;;;;29.36;46.72;99918.13;1791253;80;21413;-77
2022/08/16 09:03:33;;;;;;;8.30;5.70;;;;;;;29.36;46.51;99915.94;1805064;77;20955;-77
2022/08/16 09:09:41;;;;;;;5.87;5.33;;;;;;;29.59;46.04;99917.67;1886845;75;23351;-75
2022/08/16 09:12:08;;;;;;;5.45;4.90;;;;;;;29.54;45.83;99912.27;1833011;77;21029;-75
2022/08/16 09:14:37;;;;;;;6.17;4.97;;;;;;;29.59;45.58;99915.70;1825449;76;21878;-75
2022/08/16 09:17:03;;;;;;;;;;;;;;;29.60;45.27;99926.14;1842942;77;20990;-75
2022/08/16 09:19:30;;;;;;;5.45;4.72;;;;;;;29.64;45.12;99931.28;1848846;75;20444;-75
2022/08/16 09:21:56;;;;;;;5.78;4.58;;;;;;;29.67;44.91;99931.48;1834445;77;20990;-75
2022/08/16 09:24:22;;;;;;;5.17;4.70;;;;;;;29.67;44.67;99929.30;1841352;77;20987;-75
2022/08/16 09:26:48;;;;;;;5.83;4.58;;;;;;;29.74;44.43;99931.06;1846663;76;22611;-75
2022/08/16 09:29:14;;;;;;;9.33;5.55;;;;;;;29.88;44.16;99929.69;1851989;77;21045;-75
2022/08/16 09:31:40;;;;;;;5.22;4.72;;;;;;;29.95;43.89;99933.66;1844213;75;21021;-75
2022/08/16 09:34:06;;;;;;;6.37;4.90;;;;;;;30.03;43.85;99938.43;1833092;77;21000;-75
2022/08/16 09:36:32;;;;;;;5.08;4.60;;;;;;;30.01;43.70;99930.25;1851906;77;20981;-75
2022/08/16 09:38:58;;;;;;;6.62;5.10;;;;;;;30.04;43.49;99927.69;1832401;77;21755;-75
2022/08/16 09:41:24;;;;;;;4.97;4.22;;;;;;;30.04;43.34;99926.31;1857238;76;20971;-75
2022/08/16 09:43:51;;;;;;;6.45;4.62;;;;;;;30.03;43.09;99929.36;1842287;77;20942;-77
2022/08/16 09:46:17;;;;;;;22.27;5.95;;;;;;;30.08;42.94;99919.05;1806680;77;21506;-76
2022/08/16 09:48:43;;;;;;;7.37;5.05;;;;;;;30.13;42.76;99920.87;1817816;78;20910;-77
2022/08/16 09:51:09;;;;;;;6.15;4.72;;;;;;;30.09;42.60;99928.11;1828060;78;22819;-77
2022/08/16 09:53:36;;;;;;;4.78;4.37;;;;;;;29.97;42.46;99926.48;1827857;78;21051;-77
2022/08/16 09:56:03;;;;;;;8.53;5.97;;;;;;;30.03;42.49;99929.36;1798287;79;21038;-77
2022/08/16 09:58:30;;;;;;;5.35;4.85;;;;;;;30.06;42.32;99928.73;1785751;79;21042;-77
2022/08/16 10:00:56;;;;;;;57.58;8.98;;;;;;;30.07;42.05;99933.94;1794446;79;21045;-77
2022/08/16 10:03:22;;;;;;;5.33;4.80;;;;;;;30.08;41.92;99925.92;1790427;79;21812;-77
2022/08/16 10:05:48;;;;;;;8.08;4.67;;;;;;;30.18;41.79;99916.08;1789670;78;21444;-76
2022/08/16 10:08:17;;;;;;;6.40;4.58;;;;;;;30.27;41.56;99927.70;1775338;79;21025;-77
2022/08/16 10:13:10;;;;;;;;;;;;;;;30.32;41.52;99929.78;1774538;81;20953;-77
2022/08/16 10:13:11;;;;;;;5.53;4.55;;;;;;;30.56;41.46;99928.94;1787669;79;20267;-77
2022/08/16 10:15:43;;;;;;;7.58;4.72;;;;;;;30.67;41.31;99939.13;1766892;81;21878;-76
2022/08/16 10:18:11;;;;;;;7.58;4.70;;;;;;;30.63;41.00;99932.63;1792356;79;21006;-77
2022/08/16 10:20:43;;;;;;;5.87;4.65;;;;;;;30.63;40.94;99929.87;1763157;81;21025;-77
2022/08/16 10:23:12;;;;;;;18.70;6.05;;;;;;;30.69;40.76;99935.48;1790711;80;21014;-77
2022/08/16 10:25:42;;;;;;;8.13;5.00;;;;;;;30.71;40.56;99937.38;1792666;79;21003;-77
2022/08/16 10:28:08;;;;;;;6.62;5.05;;;;;;;30.79;40.55;99936.59;1792377;79;21834;-77
2022/08/16 10:30:35;;;;;;;7.05;4.90;;;;;;;30.85;40.52;99940.87;1790718;80;21030;-79
2022/08/16 10:33:02;;;;;;;5.10;4.70;;;;;;;30.74;40.37;99940.87;1795755;79;20922;-79
2022/08/16 10:35:30;;;;;;;16.95;6.00;;;;;;;30.63;40.17;99935.38;1791525;78;21046;-79
2022/08/16 10:37:56;;;;;;;7.80;5.30;;;;;;;30.57;40.09;99931.13;1791222;80;21018;-79
2022/08/16 10:40:22;;;;;;;5.22;4.60;;;;;;;30.56;40.06;99936.38;1790685;80;21844;-79
2022/08/16 10:42:49;;;;;;;5.72;5.22;;;;;;;30.51;39.96;99932.36;1790722;80;20986;-79
2022/08/16 10:45:16;;;;;;;9.50;5.25;;;;;;;30.53;39.84;99931.50;1790488;80;20991;-79
2022/08/16 10:47:43;;;;;;;8.33;5.50;;;;;;;30.48;39.82;99929.68;1793331;78;21034;-79
2022/08/16 10:50:09;;;;;;;6.20;5.60;;;;;;;30.55;39.92;99942.44;1794022;78;21065;-79
2022/08/16 10:52:35;;;;;;;7.72;5.20;;;;;;;30.57;39.91;99938.02;1790719;78;21986;-79
2022/08/16 10:55:01;;;;;;;5.05;4.62;;;;;;;30.64;39.91;99939.20;1790895;78;21070;-79
2022/08/16 10:57:27;;;;;;;8.00;5.30;;;;;;;30.61;39.80;99940.39;1790560;78;21213;-79
2022/08/16 10:59:54;;;;;;;6.90;5.00;;;;;;;30.56;39.69;99936.38;1798930;78;20999;-79
2022/08/16 11:02:21;;;;;;;15.65;5.97;;;;;;;30.35;39.48;99935.22;1799158;79;21526;-79
2022/08/16 11:04:48;;;;;;;5.33;4.83;;;;;;;30.46;39.60;99936.63;1797063;79;21945;-79
2022/08/16 11:07:14;;;;;;;6.33;4.47;;;;;;;30.59;39.49;99937.94;1794792;79;20983;-79
2022/08/16 11:09:40;;;;;;;6.83;4.80;;;;;;;30.43;39.29;99942.20;1792365;77;21037;-79
2022/08/16 11:12:07;;;;;;;12.28;5.40;;;;;;;30.39;39.17;99941.17;1794488;80;20986;-79
2022/08/16 11:14:33;;;;;;;6.12;4.25;;;;;;;30.45;39.13;99930.88;1794567;78;21394;-79
2022/08/16 11:17:01;;;;;;;4.85;4.40;;;;;;;30.47;39.04;99939.64;1794372;80;21817;-79
2022/08/16 11:19:29;;;;;;;7.42;5.10;;;;;;;30.52;39.01;99929.87;1794772;80;20994;-79
2022/08/16 11:21:55;;;;;;;5.17;4.35;;;;;;;30.64;38.95;99934.26;1792754;80;20999;-79
2022/08/16 11:24:21;;;;;;;6.42;4.42;;;;;;;30.73;38.83;99930.98;1793584;80;20982;-79
2022/08/16 11:26:49;;;;;;;5.40;4.90;;;;;;;30.78;38.57;99929.48;1792955;78;21015;-80
2022/08/16 11:29:15;;;;;;;8.43;5.12;;;;;;;30.73;38.54;99933.73;1794621;80;21931;-79